sensor_id;sensor_type;location;lat;lon;timestamp;P1;durP1;ratioP1;P2;durP2;ratioP2
29686;SDS011;16599;47.078;15.536;2022-12-18T00:01:22;54.17;;;22.33;;
29686;SDS011;16599;47.078;15.536;2022-12-18T00:03:50;63.35;;;25.23;;
29686;SDS011;16599;47.078;15.536;2022-12-18T00:06:18;66.05;;;24.77;;
29686;SDS011;16599;47.078;15.536;2022-12-18T00:08:45;64.38;;;25.92;;
29686;SDS011;16599;47.078;15.536;2022-12-18T00:11:16;63.00;;;22.65;;
29686;SDS011;16599;47.078;15.536;2022-12-18T00:13:45;57.13;;;24.13;;
29686;SDS011;16599;47.078;15.536;2022-12-18T00:16:13;61.13;;;25.23;;
29686;SDS011;16599;47.078;15.536;2022-12-18T00:18:42;60.97;;;24.08;;
29686;SDS011;16599;47.078;15.536;2022-12-18T00:21:10;57.53;;;23.63;;
29686;SDS011;16599;47.078;15.536;2022-12-18T00:23:38;56.30;;;22.13;;
29686;SDS011;16599;47.078;15.536;2022-12-18T00:26:09;59.28;;;24.27;;
29686;SDS011;16599;47.078;15.536;2022-12-18T00:28:39;65.88;;;25.58;;
29686;SDS011;16599;47.078;15.536;2022-12-18T00:31:11;54.78;;;23.50;;
29686;SDS011;16599;47.078;15.536;2022-12-18T00:33:39;52.53;;;22.95;;
29686;SDS011;16599;47.078;15.536;2022-12-18T00:36:09;47.13;;;20.55;;
29686;SDS011;16599;47.078;15.536;2022-12-18T00:38:38;52.08;;;21.38;;
29686;SDS011;16599;47.078;15.536;2022-12-18T00:41:06;49.42;;;19.70;;
29686;SDS011;16599;47.078;15.536;2022-12-18T00:43:35;50.83;;;21.83;;
29686;SDS011;16599;47.078;15.536;2022-12-18T00:46:03;60.35;;;23.58;;
29686;SDS011;16599;47.078;15.536;2022-12-18T00:48:30;47.72;;;19.58;;
29686;SDS011;16599;47.078;15.536;2022-12-18T00:50:57;46.10;;;19.27;;
29686;SDS011;16599;47.078;15.536;2022-12-18T00:53:24;45.97;;;18.98;;
29686;SDS011;16599;47.078;15.536;2022-12-18T00:55:51;47.88;;;20.73;;
29686;SDS011;16599;47.078;15.536;2022-12-18T00:58:17;50.95;;;22.52;;
29686;SDS011;16599;47.078;15.536;2022-12-18T01:00:44;55.17;;;23.08;;
29686;SDS011;16599;47.078;15.536;2022-12-18T01:03:14;48.83;;;19.58;;
29686;SDS011;16599;47.078;15.536;2022-12-18T01:05:41;51.33;;;20.40;;
29686;SDS011;16599;47.078;15.536;2022-12-18T01:08:08;48.40;;;19.85;;
29686;SDS011;16599;47.078;15.536;2022-12-18T01:10:35;45.17;;;19.00;;
29686;SDS011;16599;47.078;15.536;2022-12-18T01:13:02;51.33;;;19.80;;
29686;SDS011;16599;47.078;15.536;2022-12-18T01:15:29;55.13;;;21.67;;
29686;SDS011;16599;47.078;15.536;2022-12-18T01:17:56;50.38;;;20.65;;
29686;SDS011;16599;47.078;15.536;2022-12-18T01:20:23;49.80;;;20.77;;
29686;SDS011;16599;47.078;15.536;2022-12-18T01:22:49;49.08;;;18.80;;
29686;SDS011;16599;47.078;15.536;2022-12-18T01:25:16;46.13;;;19.15;;
29686;SDS011;16599;47.078;15.536;2022-12-18T01:27:43;43.38;;;18.95;;
29686;SDS011;16599;47.078;15.536;2022-12-18T01:30:10;55.88;;;21.98;;
29686;SDS011;16599;47.078;15.536;2022-12-18T01:32:37;45.25;;;19.00;;
29686;SDS011;16599;47.078;15.536;2022-12-18T01:35:04;44.58;;;19.00;;
29686;SDS011;16599;47.078;15.536;2022-12-18T01:37:31;42.90;;;17.63;;
29686;SDS011;16599;47.078;15.536;2022-12-18T01:39:58;46.50;;;18.85;;
29686;SDS011;16599;47.078;15.536;2022-12-18T01:42:25;46.50;;;18.85;;
29686;SDS011;16599;47.078;15.536;2022-12-18T01:49:55;43.65;;;19.02;;
29686;SDS011;16599;47.078;15.536;2022-12-18T01:52:24;41.03;;;18.38;;
29686;SDS011;16599;47.078;15.536;2022-12-18T01:54:54;48.55;;;18.17;;
29686;SDS011;16599;47.078;15.536;2022-12-18T01:57:22;49.38;;;20.30;;
29686;SDS011;16599;47.078;15.536;2022-12-18T01:59:51;45.97;;;19.50;;
29686;SDS011;16599;47.078;15.536;2022-12-18T02:02:20;47.22;;;18.55;;
29686;SDS011;16599;47.078;15.536;2022-12-18T02:04:47;41.50;;;17.60;;
29686;SDS011;16599;47.078;15.536;2022-12-18T02:17:43;38.30;;;16.75;;
29686;SDS011;16599;47.078;15.536;2022-12-18T02:20:23;35.70;;;16.90;;
29686;SDS011;16599;47.078;15.536;2022-12-18T02:23:06;37.90;;;17.45;;
29686;SDS011;16599;47.078;15.536;2022-12-18T02:31:17;37.65;;;16.42;;
29686;SDS011;16599;47.078;15.536;2022-12-18T02:33:52;43.22;;;16.65;;
29686;SDS011;16599;47.078;15.536;2022-12-18T02:36:21;39.05;;;16.33;;
29686;SDS011;16599;47.078;15.536;2022-12-18T02:38:49;41.80;;;16.90;;
29686;SDS011;16599;47.078;15.536;2022-12-18T02:41:18;40.78;;;17.13;;
29686;SDS011;16599;47.078;15.536;2022-12-18T02:43:46;44.75;;;17.38;;
29686;SDS011;16599;47.078;15.536;2022-12-18T02:46:27;37.10;;;15.15;;
29686;SDS011;16599;47.078;15.536;2022-12-18T02:49:10;41.08;;;17.42;;
29686;SDS011;16599;47.078;15.536;2022-12-18T02:52:14;31.45;;;14.75;;
29686;SDS011;16599;47.078;15.536;2022-12-18T02:57:46;38.45;;;16.35;;
29686;SDS011;16599;47.078;15.536;2022-12-18T03:00:24;37.90;;;15.88;;
29686;SDS011;16599;47.078;15.536;2022-12-18T03:03:10;38.85;;;15.77;;
29686;SDS011;16599;47.078;15.536;2022-12-18T03:05:56;38.60;;;16.20;;
29686;SDS011;16599;47.078;15.536;2022-12-18T03:08:30;38.40;;;16.25;;
29686;SDS011;16599;47.078;15.536;2022-12-18T03:11:10;35.10;;;14.93;;
29686;SDS011;16599;47.078;15.536;2022-12-18T03:16:20;37.53;;;16.10;;
29686;SDS011;16599;47.078;15.536;2022-12-18T03:18:55;36.90;;;15.63;;
29686;SDS011;16599;47.078;15.536;2022-12-18T03:21:43;34.45;;;15.10;;
29686;SDS011;16599;47.078;15.536;2022-12-18T03:24:13;39.40;;;15.75;;
29686;SDS011;16599;47.078;15.536;2022-12-18T03:26:42;37.40;;;15.95;;
29686;SDS011;16599;47.078;15.536;2022-12-18T03:32:11;38.75;;;15.50;;
29686;SDS011;16599;47.078;15.536;2022-12-18T03:34:42;36.88;;;15.15;;
29686;SDS011;16599;47.078;15.536;2022-12-18T03:37:13;34.05;;;15.75;;
29686;SDS011;16599;47.078;15.536;2022-12-18T03:39:40;41.45;;;15.63;;
29686;SDS011;16599;47.078;15.536;2022-12-18T03:42:14;34.63;;;14.18;;
29686;SDS011;16599;47.078;15.536;2022-12-18T03:45:06;30.92;;;12.88;;
29686;SDS011;16599;47.078;15.536;2022-12-18T03:47:58;33.83;;;13.60;;
29686;SDS011;16599;47.078;15.536;2022-12-18T03:50:36;29.25;;;13.30;;
29686;SDS011;16599;47.078;15.536;2022-12-18T03:55:58;30.20;;;12.55;;
29686;SDS011;16599;47.078;15.536;2022-12-18T03:58:27;31.35;;;12.52;;
29686;SDS011;16599;47.078;15.536;2022-12-18T04:00:56;26.02;;;12.45;;
29686;SDS011;16599;47.078;15.536;2022-12-18T04:03:27;24.45;;;10.05;;
29686;SDS011;16599;47.078;15.536;2022-12-18T04:05:56;27.63;;;12.50;;
29686;SDS011;16599;47.078;15.536;2022-12-18T04:08:25;28.45;;;12.20;;
29686;SDS011;16599;47.078;15.536;2022-12-18T04:10:52;33.20;;;13.57;;
29686;SDS011;16599;47.078;15.536;2022-12-18T04:13:23;30.20;;;13.30;;
29686;SDS011;16599;47.078;15.536;2022-12-18T04:15:53;31.73;;;13.00;;
29686;SDS011;16599;47.078;15.536;2022-12-18T04:18:20;28.23;;;12.45;;
29686;SDS011;16599;47.078;15.536;2022-12-18T04:20:47;28.52;;;12.15;;
29686;SDS011;16599;47.078;15.536;2022-12-18T04:23:14;26.08;;;11.95;;
29686;SDS011;16599;47.078;15.536;2022-12-18T04:25:40;22.92;;;10.38;;
29686;SDS011;16599;47.078;15.536;2022-12-18T04:28:07;25.50;;;11.15;;
29686;SDS011;16599;47.078;15.536;2022-12-18T04:30:34;23.00;;;10.48;;
29686;SDS011;16599;47.078;15.536;2022-12-18T04:33:01;26.50;;;10.40;;
29686;SDS011;16599;47.078;15.536;2022-12-18T04:35:29;26.23;;;10.68;;
29686;SDS011;16599;47.078;15.536;2022-12-18T04:37:56;25.10;;;10.07;;
29686;SDS011;16599;47.078;15.536;2022-12-18T04:40:23;22.63;;;10.40;;
29686;SDS011;16599;47.078;15.536;2022-12-18T04:42:50;19.73;;;9.73;;
29686;SDS011;16599;47.078;15.536;2022-12-18T04:45:17;20.60;;;9.80;;
29686;SDS011;16599;47.078;15.536;2022-12-18T04:47:43;21.42;;;9.95;;
29686;SDS011;16599;47.078;15.536;2022-12-18T04:50:10;22.67;;;9.88;;
29686;SDS011;16599;47.078;15.536;2022-12-18T04:52:37;21.83;;;9.90;;
29686;SDS011;16599;47.078;15.536;2022-12-18T04:55:04;16.13;;;8.00;;
29686;SDS011;16599;47.078;15.536;2022-12-18T04:57:31;20.23;;;9.20;;
29686;SDS011;16599;47.078;15.536;2022-12-18T04:59:58;22.25;;;9.50;;
29686;SDS011;16599;47.078;15.536;2022-12-18T05:02:25;20.65;;;9.63;;
29686;SDS011;16599;47.078;15.536;2022-12-18T05:04:52;26.15;;;10.27;;
29686;SDS011;16599;47.078;15.536;2022-12-18T05:07:19;23.30;;;9.63;;
29686;SDS011;16599;47.078;15.536;2022-12-18T05:09:46;21.42;;;9.95;;
29686;SDS011;16599;47.078;15.536;2022-12-18T05:12:12;18.27;;;8.23;;
29686;SDS011;16599;47.078;15.536;2022-12-18T05:14:39;17.85;;;8.90;;
29686;SDS011;16599;47.078;15.536;2022-12-18T05:17:06;18.63;;;8.68;;
29686;SDS011;16599;47.078;15.536;2022-12-18T05:19:33;17.83;;;8.00;;
29686;SDS011;16599;47.078;15.536;2022-12-18T05:21:59;18.67;;;7.97;;
29686;SDS011;16599;47.078;15.536;2022-12-18T05:24:27;17.98;;;9.15;;
29686;SDS011;16599;47.078;15.536;2022-12-18T05:26:54;19.35;;;8.15;;
29686;SDS011;16599;47.078;15.536;2022-12-18T05:29:21;19.33;;;8.18;;
29686;SDS011;16599;47.078;15.536;2022-12-18T05:31:48;19.08;;;7.68;;
29686;SDS011;16599;47.078;15.536;2022-12-18T05:34:14;15.10;;;7.35;;
29686;SDS011;16599;47.078;15.536;2022-12-18T05:36:41;16.92;;;7.70;;
29686;SDS011;16599;47.078;15.536;2022-12-18T05:39:09;19.05;;;8.50;;
29686;SDS011;16599;47.078;15.536;2022-12-18T05:41:36;23.17;;;10.15;;
29686;SDS011;16599;47.078;15.536;2022-12-18T05:44:03;23.55;;;10.23;;
29686;SDS011;16599;47.078;15.536;2022-12-18T05:46:30;19.70;;;9.73;;
29686;SDS011;16599;47.078;15.536;2022-12-18T05:49:00;19.33;;;9.48;;
29686;SDS011;16599;47.078;15.536;2022-12-18T05:51:27;18.83;;;8.90;;
29686;SDS011;16599;47.078;15.536;2022-12-18T05:53:54;19.45;;;8.02;;
29686;SDS011;16599;47.078;15.536;2022-12-18T05:56:22;16.13;;;7.43;;
29686;SDS011;16599;47.078;15.536;2022-12-18T05:58:52;22.90;;;9.10;;
29686;SDS011;16599;47.078;15.536;2022-12-18T06:01:21;20.88;;;9.18;;
29686;SDS011;16599;47.078;15.536;2022-12-18T06:03:50;18.50;;;8.88;;
29686;SDS011;16599;47.078;15.536;2022-12-18T06:06:21;14.80;;;7.82;;
29686;SDS011;16599;47.078;15.536;2022-12-18T06:08:51;16.05;;;8.43;;
29686;SDS011;16599;47.078;15.536;2022-12-18T06:11:20;23.85;;;9.73;;
29686;SDS011;16599;47.078;15.536;2022-12-18T06:13:50;24.83;;;10.88;;
29686;SDS011;16599;47.078;15.536;2022-12-18T06:16:23;21.55;;;9.98;;
29686;SDS011;16599;47.078;15.536;2022-12-18T06:18:50;29.45;;;11.30;;
29686;SDS011;16599;47.078;15.536;2022-12-18T06:21:17;22.73;;;10.63;;
29686;SDS011;16599;47.078;15.536;2022-12-18T06:23:43;22.40;;;9.18;;
29686;SDS011;16599;47.078;15.536;2022-12-18T06:26:11;27.75;;;10.02;;
29686;SDS011;16599;47.078;15.536;2022-12-18T06:28:39;23.75;;;10.25;;
29686;SDS011;16599;47.078;15.536;2022-12-18T06:31:07;25.50;;;12.13;;
29686;SDS011;16599;47.078;15.536;2022-12-18T06:33:35;29.10;;;12.02;;
29686;SDS011;16599;47.078;15.536;2022-12-18T06:36:04;29.65;;;12.23;;
29686;SDS011;16599;47.078;15.536;2022-12-18T06:38:31;27.38;;;11.55;;
29686;SDS011;16599;47.078;15.536;2022-12-18T06:40:59;19.77;;;9.27;;
29686;SDS011;16599;47.078;15.536;2022-12-18T06:43:26;23.50;;;10.90;;
29686;SDS011;16599;47.078;15.536;2022-12-18T06:45:57;24.42;;;9.98;;
29686;SDS011;16599;47.078;15.536;2022-12-18T06:48:29;24.45;;;10.38;;
29686;SDS011;16599;47.078;15.536;2022-12-18T06:50:56;25.02;;;10.65;;
29686;SDS011;16599;47.078;15.536;2022-12-18T06:53:23;24.48;;;10.75;;
29686;SDS011;16599;47.078;15.536;2022-12-18T06:55:51;26.15;;;11.70;;
29686;SDS011;16599;47.078;15.536;2022-12-18T06:58:17;29.17;;;13.15;;
29686;SDS011;16599;47.078;15.536;2022-12-18T07:00:44;30.23;;;12.68;;
29686;SDS011;16599;47.078;15.536;2022-12-18T07:03:11;30.90;;;13.82;;
29686;SDS011;16599;47.078;15.536;2022-12-18T07:05:41;32.13;;;13.20;;
29686;SDS011;16599;47.078;15.536;2022-12-18T07:08:08;38.95;;;15.32;;
29686;SDS011;16599;47.078;15.536;2022-12-18T07:10:42;38.15;;;15.73;;
29686;SDS011;16599;47.078;15.536;2022-12-18T07:13:14;29.13;;;13.77;;
29686;SDS011;16599;47.078;15.536;2022-12-18T07:15:44;35.33;;;14.15;;
29686;SDS011;16599;47.078;15.536;2022-12-18T07:18:11;34.97;;;14.85;;
29686;SDS011;16599;47.078;15.536;2022-12-18T07:20:38;36.50;;;14.95;;
29686;SDS011;16599;47.078;15.536;2022-12-18T07:23:05;33.17;;;14.20;;
29686;SDS011;16599;47.078;15.536;2022-12-18T07:25:35;40.55;;;16.05;;
29686;SDS011;16599;47.078;15.536;2022-12-18T07:28:03;40.60;;;16.42;;
29686;SDS011;16599;47.078;15.536;2022-12-18T07:30:30;42.90;;;16.98;;
29686;SDS011;16599;47.078;15.536;2022-12-18T07:32:57;33.97;;;17.00;;
29686;SDS011;16599;47.078;15.536;2022-12-18T07:35:24;40.80;;;17.45;;
29686;SDS011;16599;47.078;15.536;2022-12-18T07:37:51;42.92;;;18.88;;
29686;SDS011;16599;47.078;15.536;2022-12-18T07:40:18;41.88;;;18.30;;
29686;SDS011;16599;47.078;15.536;2022-12-18T07:42:44;47.42;;;21.25;;
29686;SDS011;16599;47.078;15.536;2022-12-18T07:45:11;59.70;;;23.08;;
29686;SDS011;16599;47.078;15.536;2022-12-18T07:47:38;48.78;;;21.15;;
29686;SDS011;16599;47.078;15.536;2022-12-18T07:50:07;59.88;;;22.73;;
29686;SDS011;16599;47.078;15.536;2022-12-18T07:52:34;51.38;;;21.50;;
29686;SDS011;16599;47.078;15.536;2022-12-18T07:55:01;50.72;;;22.20;;
29686;SDS011;16599;47.078;15.536;2022-12-18T07:57:28;54.58;;;23.20;;
29686;SDS011;16599;47.078;15.536;2022-12-18T08:00:15;47.67;;;21.83;;
29686;SDS011;16599;47.078;15.536;2022-12-18T08:02:42;50.53;;;22.23;;
29686;SDS011;16599;47.078;15.536;2022-12-18T08:05:09;52.35;;;22.80;;
29686;SDS011;16599;47.078;15.536;2022-12-18T08:07:36;56.33;;;24.25;;
29686;SDS011;16599;47.078;15.536;2022-12-18T08:10:03;48.95;;;23.45;;
29686;SDS011;16599;47.078;15.536;2022-12-18T08:12:31;54.35;;;24.30;;
29686;SDS011;16599;47.078;15.536;2022-12-18T08:14:58;49.85;;;21.48;;
29686;SDS011;16599;47.078;15.536;2022-12-18T08:17:25;53.08;;;22.30;;
29686;SDS011;16599;47.078;15.536;2022-12-18T08:19:52;45.67;;;20.02;;
29686;SDS011;16599;47.078;15.536;2022-12-18T08:22:18;48.38;;;21.40;;
29686;SDS011;16599;47.078;15.536;2022-12-18T08:24:45;46.40;;;20.95;;
29686;SDS011;16599;47.078;15.536;2022-12-18T08:27:12;45.28;;;21.40;;
29686;SDS011;16599;47.078;15.536;2022-12-18T08:29:54;52.35;;;23.20;;
29686;SDS011;16599;47.078;15.536;2022-12-18T08:32:21;54.88;;;23.25;;
29686;SDS011;16599;47.078;15.536;2022-12-18T08:34:49;48.95;;;22.88;;
29686;SDS011;16599;47.078;15.536;2022-12-18T08:37:15;60.17;;;25.08;;
29686;SDS011;16599;47.078;15.536;2022-12-18T08:39:42;50.03;;;23.52;;
29686;SDS011;16599;47.078;15.536;2022-12-18T08:42:09;49.45;;;23.80;;
29686;SDS011;16599;47.078;15.536;2022-12-18T08:45:11;53.42;;;22.40;;
29686;SDS011;16599;47.078;15.536;2022-12-18T08:47:38;49.33;;;22.98;;
29686;SDS011;16599;47.078;15.536;2022-12-18T08:50:05;41.53;;;20.05;;
29686;SDS011;16599;47.078;15.536;2022-12-18T08:52:32;47.83;;;20.80;;
29686;SDS011;16599;47.078;15.536;2022-12-18T08:54:59;52.95;;;23.10;;
29686;SDS011;16599;47.078;15.536;2022-12-18T08:57:31;51.22;;;20.85;;
29686;SDS011;16599;47.078;15.536;2022-12-18T08:59:58;52.33;;;22.80;;
29686;SDS011;16599;47.078;15.536;2022-12-18T09:02:25;54.75;;;21.63;;
29686;SDS011;16599;47.078;15.536;2022-12-18T09:04:52;57.30;;;23.35;;
29686;SDS011;16599;47.078;15.536;2022-12-18T09:07:22;57.83;;;23.23;;
29686;SDS011;16599;47.078;15.536;2022-12-18T09:09:49;51.17;;;22.48;;
29686;SDS011;16599;47.078;15.536;2022-12-18T09:12:16;55.15;;;22.33;;
29686;SDS011;16599;47.078;15.536;2022-12-18T09:14:43;53.92;;;22.83;;
29686;SDS011;16599;47.078;15.536;2022-12-18T09:17:12;50.03;;;21.67;;
29686;SDS011;16599;47.078;15.536;2022-12-18T09:19:39;51.47;;;22.30;;
29686;SDS011;16599;47.078;15.536;2022-12-18T09:22:10;49.78;;;22.75;;
29686;SDS011;16599;47.078;15.536;2022-12-18T09:24:37;53.88;;;23.20;;
29686;SDS011;16599;47.078;15.536;2022-12-18T09:27:04;56.30;;;23.30;;
29686;SDS011;16599;47.078;15.536;2022-12-18T09:29:31;56.58;;;23.33;;
29686;SDS011;16599;47.078;15.536;2022-12-18T09:31:58;58.40;;;23.48;;
29686;SDS011;16599;47.078;15.536;2022-12-18T09:34:25;50.83;;;21.80;;
29686;SDS011;16599;47.078;15.536;2022-12-18T09:37:00;56.78;;;24.42;;
29686;SDS011;16599;47.078;15.536;2022-12-18T09:39:27;55.22;;;24.27;;
29686;SDS011;16599;47.078;15.536;2022-12-18T09:42:01;61.10;;;25.27;;
29686;SDS011;16599;47.078;15.536;2022-12-18T09:44:52;60.72;;;24.13;;
29686;SDS011;16599;47.078;15.536;2022-12-18T09:49:50;58.95;;;25.13;;
29686;SDS011;16599;47.078;15.536;2022-12-18T09:55:08;58.92;;;25.70;;
29686;SDS011;16599;47.078;15.536;2022-12-18T09:57:41;61.42;;;26.42;;
29686;SDS011;16599;47.078;15.536;2022-12-18T10:00:21;65.78;;;26.33;;
29686;SDS011;16599;47.078;15.536;2022-12-18T10:02:49;60.72;;;26.30;;
29686;SDS011;16599;47.078;15.536;2022-12-18T10:11:21;67.45;;;26.73;;
29686;SDS011;16599;47.078;15.536;2022-12-18T10:14:08;61.38;;;25.88;;
29686;SDS011;16599;47.078;15.536;2022-12-18T10:19:36;60.40;;;26.67;;
29686;SDS011;16599;47.078;15.536;2022-12-18T10:27:30;77.20;;;28.65;;
29686;SDS011;16599;47.078;15.536;2022-12-18T10:29:58;70.60;;;27.70;;
29686;SDS011;16599;47.078;15.536;2022-12-18T10:32:29;64.70;;;27.90;;
29686;SDS011;16599;47.078;15.536;2022-12-18T10:35:05;63.92;;;27.55;;
29686;SDS011;16599;47.078;15.536;2022-12-18T10:37:59;70.93;;;29.83;;
29686;SDS011;16599;47.078;15.536;2022-12-18T10:43:33;68.20;;;27.98;;
29686;SDS011;16599;47.078;15.536;2022-12-18T10:46:12;66.93;;;27.50;;
29686;SDS011;16599;47.078;15.536;2022-12-18T10:51:22;67.38;;;28.58;;
29686;SDS011;16599;47.078;15.536;2022-12-18T10:54:04;67.10;;;27.88;;
29686;SDS011;16599;47.078;15.536;2022-12-18T10:56:38;65.55;;;27.67;;
29686;SDS011;16599;47.078;15.536;2022-12-18T10:59:07;66.85;;;27.80;;
29686;SDS011;16599;47.078;15.536;2022-12-18T11:01:57;67.15;;;28.02;;
29686;SDS011;16599;47.078;15.536;2022-12-18T11:04:28;78.47;;;29.70;;
29686;SDS011;16599;47.078;15.536;2022-12-18T11:07:00;74.45;;;31.55;;
29686;SDS011;16599;47.078;15.536;2022-12-18T11:09:38;67.68;;;26.38;;
29686;SDS011;16599;47.078;15.536;2022-12-18T11:12:18;75.10;;;28.90;;
29686;SDS011;16599;47.078;15.536;2022-12-18T11:14:49;71.63;;;29.10;;
29686;SDS011;16599;47.078;15.536;2022-12-18T11:22:35;70.60;;;28.70;;
29686;SDS011;16599;47.078;15.536;2022-12-18T11:27:58;64.95;;;26.73;;
29686;SDS011;16599;47.078;15.536;2022-12-18T11:30:45;63.80;;;27.50;;
29686;SDS011;16599;47.078;15.536;2022-12-18T11:33:17;62.40;;;27.05;;
29686;SDS011;16599;47.078;15.536;2022-12-18T11:35:53;64.78;;;27.23;;
29686;SDS011;16599;47.078;15.536;2022-12-18T11:38:40;76.63;;;27.90;;
29686;SDS011;16599;47.078;15.536;2022-12-18T11:43:49;61.67;;;26.40;;
29686;SDS011;16599;47.078;15.536;2022-12-18T11:46:29;62.55;;;26.48;;
29686;SDS011;16599;47.078;15.536;2022-12-18T11:49:07;68.00;;;27.35;;
29686;SDS011;16599;47.078;15.536;2022-12-18T11:51:45;77.85;;;30.60;;
29686;SDS011;16599;47.078;15.536;2022-12-18T11:54:14;78.60;;;32.33;;
29686;SDS011;16599;47.078;15.536;2022-12-18T11:59:55;76.05;;;31.00;;
29686;SDS011;16599;47.078;15.536;2022-12-18T12:11:28;75.07;;;30.95;;
29686;SDS011;16599;47.078;15.536;2022-12-18T12:14:13;70.45;;;28.92;;
29686;SDS011;16599;47.078;15.536;2022-12-18T12:22:03;76.38;;;30.25;;
29686;SDS011;16599;47.078;15.536;2022-12-18T12:24:47;89.55;;;30.50;;
29686;SDS011;16599;47.078;15.536;2022-12-18T12:27:52;77.55;;;28.13;;
29686;SDS011;16599;47.078;15.536;2022-12-18T12:36:13;81.13;;;30.00;;
29686;SDS011;16599;47.078;15.536;2022-12-18T12:39:10;86.20;;;28.75;;
29686;SDS011;16599;47.078;15.536;2022-12-18T12:41:41;94.78;;;30.40;;
29686;SDS011;16599;47.078;15.536;2022-12-18T12:44:30;81.03;;;29.80;;
29686;SDS011;16599;47.078;15.536;2022-12-18T12:47:04;94.00;;;30.60;;
29686;SDS011;16599;47.078;15.536;2022-12-18T12:49:40;89.78;;;32.15;;
29686;SDS011;16599;47.078;15.536;2022-12-18T12:52:27;101.05;;;31.40;;
29686;SDS011;16599;47.078;15.536;2022-12-18T12:55:00;92.30;;;30.60;;
29686;SDS011;16599;47.078;15.536;2022-12-18T12:57:34;93.88;;;30.33;;
29686;SDS011;16599;47.078;15.536;2022-12-18T13:00:07;97.60;;;31.40;;
29686;SDS011;16599;47.078;15.536;2022-12-18T13:05:19;89.55;;;31.25;;
29686;SDS011;16599;47.078;15.536;2022-12-18T13:07:59;88.95;;;29.02;;
29686;SDS011;16599;47.078;15.536;2022-12-18T13:10:41;101.90;;;31.38;;
29686;SDS011;16599;47.078;15.536;2022-12-18T13:13:12;97.47;;;31.40;;
29686;SDS011;16599;47.078;15.536;2022-12-18T13:16:05;92.82;;;31.23;;
29686;SDS011;16599;47.078;15.536;2022-12-18T13:18:33;90.50;;;29.95;;
29686;SDS011;16599;47.078;15.536;2022-12-18T13:21:08;103.93;;;31.90;;
29686;SDS011;16599;47.078;15.536;2022-12-18T13:28:54;92.30;;;30.95;;
29686;SDS011;16599;47.078;15.536;2022-12-18T13:36:53;110.60;;;33.85;;
29686;SDS011;16599;47.078;15.536;2022-12-18T13:44:36;107.60;;;33.78;;
29686;SDS011;16599;47.078;15.536;2022-12-18T13:49:54;112.75;;;32.17;;
29686;SDS011;16599;47.078;15.536;2022-12-18T13:52:24;94.60;;;29.98;;
29686;SDS011;16599;47.078;15.536;2022-12-18T13:54:53;106.22;;;34.75;;
29686;SDS011;16599;47.078;15.536;2022-12-18T14:00:14;105.53;;;33.63;;
29686;SDS011;16599;47.078;15.536;2022-12-18T14:02:44;110.72;;;33.15;;
29686;SDS011;16599;47.078;15.536;2022-12-18T14:08:13;86.93;;;30.20;;
29686;SDS011;16599;47.078;15.536;2022-12-18T14:13:36;94.93;;;30.92;;
29686;SDS011;16599;47.078;15.536;2022-12-18T14:16:07;87.95;;;30.95;;
29686;SDS011;16599;47.078;15.536;2022-12-18T14:21:20;83.25;;;29.17;;
29686;SDS011;16599;47.078;15.536;2022-12-18T14:23:49;77.95;;;27.70;;
29686;SDS011;16599;47.078;15.536;2022-12-18T14:26:30;94.83;;;31.53;;
29686;SDS011;16599;47.078;15.536;2022-12-18T14:29:19;84.30;;;31.08;;
29686;SDS011;16599;47.078;15.536;2022-12-18T14:34:51;91.22;;;29.05;;
29686;SDS011;16599;47.078;15.536;2022-12-18T14:37:23;86.40;;;30.13;;
29686;SDS011;16599;47.078;15.536;2022-12-18T14:39:52;91.35;;;31.42;;
29686;SDS011;16599;47.078;15.536;2022-12-18T14:42:35;87.88;;;30.55;;
29686;SDS011;16599;47.078;15.536;2022-12-18T14:48:15;81.25;;;28.30;;
29686;SDS011;16599;47.078;15.536;2022-12-18T14:50:56;96.82;;;31.17;;
29686;SDS011;16599;47.078;15.536;2022-12-18T14:53:34;86.28;;;29.85;;
29686;SDS011;16599;47.078;15.536;2022-12-18T14:56:02;86.85;;;31.15;;
29686;SDS011;16599;47.078;15.536;2022-12-18T14:58:36;86.13;;;28.70;;
29686;SDS011;16599;47.078;15.536;2022-12-18T15:01:03;89.03;;;33.65;;
29686;SDS011;16599;47.078;15.536;2022-12-18T15:03:30;88.70;;;30.13;;
29686;SDS011;16599;47.078;15.536;2022-12-18T15:06:03;79.68;;;32.08;;
29686;SDS011;16599;47.078;15.536;2022-12-18T15:08:42;89.07;;;30.70;;
29686;SDS011;16599;47.078;15.536;2022-12-18T15:14:24;87.93;;;31.73;;
29686;SDS011;16599;47.078;15.536;2022-12-18T15:16:57;84.25;;;29.10;;
29686;SDS011;16599;47.078;15.536;2022-12-18T15:19:34;85.40;;;28.52;;
29686;SDS011;16599;47.078;15.536;2022-12-18T15:22:21;86.20;;;28.95;;
29686;SDS011;16599;47.078;15.536;2022-12-18T15:24:52;92.18;;;31.67;;
29686;SDS011;16599;47.078;15.536;2022-12-18T15:27:21;88.15;;;30.05;;
29686;SDS011;16599;47.078;15.536;2022-12-18T15:30:35;91.75;;;32.25;;
29686;SDS011;16599;47.078;15.536;2022-12-18T15:32:44;98.90;;;32.58;;
29686;SDS011;16599;47.078;15.536;2022-12-18T15:37:49;104.25;;;34.55;;
29686;SDS011;16599;47.078;15.536;2022-12-18T15:40:19;92.35;;;31.63;;
29686;SDS011;16599;47.078;15.536;2022-12-18T15:42:48;79.82;;;28.15;;
29686;SDS011;16599;47.078;15.536;2022-12-18T15:45:36;77.72;;;28.83;;
29686;SDS011;16599;47.078;15.536;2022-12-18T15:48:08;77.25;;;29.92;;
29686;SDS011;16599;47.078;15.536;2022-12-18T15:50:48;89.85;;;29.83;;
29686;SDS011;16599;47.078;15.536;2022-12-18T15:53:17;92.68;;;31.02;;
29686;SDS011;16599;47.078;15.536;2022-12-18T15:55:44;90.80;;;32.17;;
29686;SDS011;16599;47.078;15.536;2022-12-18T15:58:30;88.95;;;31.13;;
29686;SDS011;16599;47.078;15.536;2022-12-18T16:00:56;86.80;;;30.35;;
29686;SDS011;16599;47.078;15.536;2022-12-18T16:03:25;82.47;;;29.60;;
29686;SDS011;16599;47.078;15.536;2022-12-18T16:05:52;101.25;;;32.83;;
29686;SDS011;16599;47.078;15.536;2022-12-18T16:08:19;95.65;;;33.20;;
29686;SDS011;16599;47.078;15.536;2022-12-18T16:10:46;100.22;;;33.50;;
29686;SDS011;16599;47.078;15.536;2022-12-18T16:13:14;96.65;;;34.47;;
29686;SDS011;16599;47.078;15.536;2022-12-18T16:15:45;92.68;;;32.53;;
29686;SDS011;16599;47.078;15.536;2022-12-18T16:18:12;97.10;;;33.33;;
29686;SDS011;16599;47.078;15.536;2022-12-18T16:20:39;92.40;;;33.35;;
29686;SDS011;16599;47.078;15.536;2022-12-18T16:23:05;103.50;;;33.85;;
29686;SDS011;16599;47.078;15.536;2022-12-18T16:25:33;91.53;;;32.08;;
29686;SDS011;16599;47.078;15.536;2022-12-18T16:27:59;108.45;;;35.08;;
29686;SDS011;16599;47.078;15.536;2022-12-18T16:30:27;98.57;;;34.45;;
29686;SDS011;16599;47.078;15.536;2022-12-18T16:33:03;101.65;;;34.83;;
29686;SDS011;16599;47.078;15.536;2022-12-18T16:35:32;112.25;;;37.85;;
29686;SDS011;16599;47.078;15.536;2022-12-18T16:38:00;111.30;;;38.00;;
29686;SDS011;16599;47.078;15.536;2022-12-18T16:40:26;108.63;;;36.40;;
29686;SDS011;16599;47.078;15.536;2022-12-18T16:42:53;97.72;;;33.25;;
29686;SDS011;16599;47.078;15.536;2022-12-18T16:45:20;108.03;;;36.00;;
29686;SDS011;16599;47.078;15.536;2022-12-18T16:47:47;110.80;;;35.88;;